Canon City, Colorado
Current Conditions -  °F | °C
As of 11:35 AM on Sunday 23 Nov 2014 (Local Time) from K1V6 Reporting Station
Scattered Clouds Scattered Clouds  
Wind Chill: 29°   Ceiling: Unl
Heat Index: 37°   Visibility: 10mi
Dew Point: 28°   Wind: 14mph
Humidity: 70%   Direction: 140°SE
Pressure: 29.8"   Gusts: NA
Location:  38.44°N, 105.23°W
Report Text: K1V6 231835Z AUTO 14012KT 10SM SCT047 SCT120 03/M02 A2980 RMK AO2
Loading
Personal Weather Stations






























Interactive Weather Map New forecast layout! Learn more

10-Day Weather Forecast

Advertisements
Track Severe Weather on mobile